Point Vicente — WDB9763 — position and weather

sailwx.info

Track history (hours):
 
Tides and Currents Weather Stations Pressure Air Temp Water Temp Dewpoint Dewpoint Depression Visibility Wind Speed Wind Dir Waves Ship Positions

Point Vicente

Owner: Foss Maritime Company, Seattle, WA. More information available from US FCC via Universal Licensing System and Coast Guard Vessel Documentation Center.

Last reported at 2014-Nov-23 01:32 UTC. Time now 2014-Nov-23 02:09 UTC.
Position N 37°54' W 122°22'.

Length 32 m; draft 4.3 m.

Type: Tug. MMSI: 366982330.

Date/timePositionNaut miles runAvg speedWind from/ knotsBaromVisibWave heightAir tempDewpointWater temp
2014-Nov-23 01:32N 37°54' W 122°22'0 0.0
2014-Nov-23 00:32N 37°54' W 122°22'0 0.0
2014-Nov-22 23:32N 37°54' W 122°22'0 0.0
2014-Nov-22 22:29N 37°54' W 122°22'0 0.0
2014-Nov-22 21:29N 37°54' W 122°22'0 0.0
2014-Nov-22 20:32N 37°54' W 122°22'0 0.0
2014-Nov-22 19:32N 37°54' W 122°22'0 0.2
2014-Nov-22 18:34N 37°54' W 122°22'6 6.2
2014-Nov-22 17:33N 38°00' W 122°24'8 7.9
2014-Nov-22 16:33N 38°04' W 122°15'1 1.0
2014-Nov-22 15:33N 38°04' W 122°14'1 0.7
2014-Nov-22 14:33N 38°03' W 122°15'0 0.0
2014-Nov-22 13:27N 38°03' W 122°15'0 0.0
2014-Nov-22 12:21N 38°03' W 122°15'0 0.0
2014-Nov-22 11:33N 38°03' W 122°15'0 0.0
2014-Nov-22 10:33N 38°03' W 122°15'0 0.0
2014-Nov-22 09:21N 38°03' W 122°15'0 0.0
2014-Nov-22 08:33N 38°03' W 122°15'1 0.8
2014-Nov-22 07:33N 38°04' W 122°16'0 0.2
2014-Nov-22 06:31N 38°03' W 122°16'5 5.1
2014-Nov-22 05:33N 38°02' W 122°22'8 7.7
2014-Nov-22 04:34N 37°55' W 122°24'2 1.5
2014-Nov-22 03:32N 37°54' W 122°22'0 0.0
2014-Nov-22 02:32N 37°54' W 122°22'0 0.0
2014-Nov-22 01:32N 37°54' W 122°22'0 0.0
2014-Nov-22 00:32N 37°54' W 122°22'0 0.0
2014-Nov-21 23:32N 37°54' W 122°22'0 0.0
2014-Nov-21 22:32N 37°54' W 122°22'0 0.0
2014-Nov-21 21:32N 37°54' W 122°22'1 0.8
2014-Nov-21 20:33N 37°55' W 122°22'0 0.1
2014-Nov-21 19:33N 37°55' W 122°22'0 0.5
2014-Nov-21 18:33N 37°55' W 122°22'1 0.6
2014-Nov-21 17:33N 37°55' W 122°22'1 0.8
2014-Nov-21 16:32N 37°54' W 122°22'0 0.0
2014-Nov-21 15:32N 37°54' W 122°22'0 0.0
2014-Nov-21 14:32N 37°54' W 122°22'0 0.0
2014-Nov-21 13:32N 37°54' W 122°22'0 0.0
2014-Nov-21 12:32N 37°54' W 122°22'0 0.0
2014-Nov-21 11:32N 37°54' W 122°22'0 0.0
2014-Nov-21 10:32N 37°54' W 122°22'0 0.0
2014-Nov-21 09:32N 37°54' W 122°22'0 0.0
2014-Nov-21 08:32N 37°54' W 122°22'0 0.0
2014-Nov-21 07:32N 37°54' W 122°22'0 0.0
2014-Nov-21 06:32N 37°54' W 122°22'0 0.0
2014-Nov-21 05:32N 37°54' W 122°22'0 0.0
2014-Nov-21 04:32N 37°54' W 122°22'0 0.0
2014-Nov-21 03:32N 37°54' W 122°22'0 0.0
2014-Nov-21 02:32N 37°54' W 122°22'0 0.0
2014-Nov-21 01:32N 37°54' W 122°22'0 0.0
2014-Nov-21 00:32N 37°54' W 122°22'0 0.0
2014-Nov-20 23:32N 37°54' W 122°22'0 0.0
2014-Nov-20 22:32N 37°54' W 122°22'0 0.0
2014-Nov-20 21:32N 37°54' W 122°22'0 0.0
2014-Nov-20 20:32N 37°54' W 122°22'0 0.0
2014-Nov-20 19:32N 37°54' W 122°22'0 0.0
2014-Nov-20 18:32N 37°54' W 122°22'0 0.0
2014-Nov-20 17:29N 37°54' W 122°22'0 0.0
2014-Nov-20 16:29N 37°54' W 122°22'0 0.0
2014-Nov-20 15:32N 37°54' W 122°22'0 0.0
2014-Nov-20 14:32N 37°54' W 122°22'0 0.0
2014-Nov-20 13:32N 37°54' W 122°22'0 0.0
2014-Nov-20 12:32N 37°54' W 122°22'2 2.1
2014-Nov-20 11:33N 37°55' W 122°25'1 0.5
2014-Nov-20 10:33N 37°54' W 122°25'7 7.3
2014-Nov-20 09:33N 37°47' W 122°22'3 2.5
2014-Nov-20 08:32N 37°45' W 122°21'0 0.2
2014-Nov-20 07:29N 37°45' W 122°21'0 0.2
2014-Nov-20 06:32N 37°45' W 122°20'0 0.0
2014-Nov-20 05:32N 37°45' W 122°20'0 0.0
2014-Nov-20 04:32N 37°45' W 122°20'0 0.0
2014-Nov-20 03:32N 37°45' W 122°20'1 1.0
2014-Nov-20 02:33N 37°46' W 122°21'7 7.0
2014-Nov-20 01:33N 37°52' W 122°24'2 2.4
2014-Nov-20 00:33N 37°54' W 122°22'0 0.1
2014-Nov-19 23:31N 37°54' W 122°22'0 0.0
2014-Nov-19 22:31N 37°54' W 122°22'0 0.0
2014-Nov-19 21:31N 37°54' W 122°22'0 0.0
2014-Nov-19 20:31N 37°54' W 122°22'0 0.0
2014-Nov-19 19:31N 37°54' W 122°22'0 0.0
2014-Nov-19 18:31N 37°54' W 122°22'0 0.0
2014-Nov-19 17:31N 37°54' W 122°22'0 0.0
2014-Nov-19 16:31N 37°54' W 122°22'0 0.0
2014-Nov-19 15:31N 37°54' W 122°22'0 0.0
2014-Nov-19 14:31N 37°54' W 122°22'0 0.0
2014-Nov-19 13:31N 37°54' W 122°22'0 0.0
2014-Nov-19 12:31N 37°54' W 122°22'0 0.0
2014-Nov-19 11:31N 37°54' W 122°22'0 0.0
2014-Nov-19 10:31N 37°54' W 122°22'2 1.8
2014-Nov-19 09:33N 37°54' W 122°25'8 7.7
2014-Nov-19 08:34N 37°47' W 122°22'4 3.8
2014-Nov-19 07:33N 37°43' W 122°21'0 0.1
2014-Nov-19 06:33N 37°43' W 122°20'0 0.0
2014-Nov-19 05:33N 37°43' W 122°20'0 0.0
2014-Nov-19 04:30N 37°43' W 122°20'0 0.0
2014-Nov-19 03:33N 37°43' W 122°20'0 0.0
2014-Nov-19 02:33N 37°43' W 122°20'0 0.0
2014-Nov-19 01:33N 37°43' W 122°20'5 4.7
2014-Nov-19 00:33N 37°48' W 122°22'7 6.7
2014-Nov-18 23:33N 37°54' W 122°23'1 0.9
2014-Nov-18 22:32N 37°54' W 122°22'0 0.0
2014-Nov-18 21:32N 37°54' W 122°22'0 0.0
2014-Nov-18 20:32N 37°54' W 122°22'0 0.0
2014-Nov-18 19:32N 37°54' W 122°22'0 0.0
2014-Nov-18 18:32N 37°54' W 122°22'1 0.6
2014-Nov-18 17:33N 37°55' W 122°22'1 0.6
2014-Nov-18 16:33N 37°54' W 122°22'0 0.0
2014-Nov-18 15:28N 37°54' W 122°22'0 0.0
2014-Nov-18 14:31N 37°54' W 122°22'0 0.0
2014-Nov-18 13:31N 37°54' W 122°22'0 0.0
2014-Nov-18 12:31N 37°54' W 122°22'0 0.0
2014-Nov-18 11:28N 37°54' W 122°22'0 0.0
2014-Nov-18 10:31N 37°54' W 122°22'0 0.0
2014-Nov-18 09:28N 37°54' W 122°22'0 0.0
2014-Nov-18 08:31N 37°54' W 122°22'0 0.0
2014-Nov-18 07:28N 37°54' W 122°22'0 0.0
2014-Nov-18 06:31N 37°54' W 122°22'0 0.0
2014-Nov-18 05:31N 37°54' W 122°22'5 4.9
2014-Nov-18 04:33N 37°58' W 122°26'7 7.3
2014-Nov-18 03:33N 38°03' W 122°19'8 8.2
2014-Nov-18 02:33N 38°02' W 122°08'11 9.3
2014-Nov-18 01:22N 38°03' W 121°54'1 0.0
2014-Nov-17 04:31N 38°03' W 121°53'14 6.4
2014-Nov-17 02:23N 38°03' W 122°11'5 5.9
2014-Nov-17 01:33N 38°03' W 122°17'6 6.1
2014-Nov-17 00:34N 38°00' W 122°24'5 5.3
2014-Nov-16 23:34N 37°55' W 122°25'2 2.0
2014-Nov-16 22:34N 37°54' W 122°23'1 1.3
2014-Nov-16 21:34N 37°55' W 122°22'1 0.7
2014-Nov-16 20:32N 37°54' W 122°22'0 0.0
2014-Nov-16 19:32N 37°54' W 122°22'0 0.1
2014-Nov-16 18:33N 37°54' W 122°22'0 0.0
2014-Nov-16 17:33N 37°54' W 122°22'1 0.6
2014-Nov-16 16:33N 37°55' W 122°22'5 5.2
2014-Nov-16 15:33N 37°59' W 122°26'1 0.7
2014-Nov-16 14:32N 37°59' W 122°26'0 0.0
2014-Nov-16 13:32N 37°59' W 122°26'0 0.0
2014-Nov-16 12:32N 37°59' W 122°26'0 0.1
2014-Nov-16 11:32N 37°59' W 122°26'0 0.0
2014-Nov-16 10:32N 37°59' W 122°26'0 0.5
2014-Nov-16 09:33N 37°59' W 122°26'1010.2
2014-Nov-16 08:33N 38°04' W 122°14'18 5.9
2014-Nov-16 05:24N 38°03' W 121°51'15 3.1
2014-Nov-16 00:33N 38°02' W 122°10'5 5.1
2014-Nov-15 23:34N 38°03' W 122°16'5 4.8
2014-Nov-15 22:34N 38°02' W 122°22'6 5.5
2014-Nov-15 21:33N 37°57' W 122°26'4 4.1
2014-Nov-15 20:34N 37°55' W 122°22'5 4.6
2014-Nov-15 19:34N 37°58' W 122°26'1 0.9
2014-Nov-15 18:31N 37°59' W 122°26'0 0.0
2014-Nov-15 17:31N 37°59' W 122°26'0 0.1
2014-Nov-15 16:31N 37°59' W 122°26'0 0.0
2014-Nov-15 15:28N 37°59' W 122°26'0 0.0
2014-Nov-15 14:31N 37°59' W 122°26'0 0.0
2014-Nov-15 13:31N 37°59' W 122°26'0 0.0
2014-Nov-15 12:31N 37°59' W 122°26'0 0.0
2014-Nov-15 11:31N 37°59' W 122°26'0 0.1
2014-Nov-15 10:28N 37°59' W 122°26'0 0.0
2014-Nov-15 09:31N 37°59' W 122°26'2 1.9
2014-Nov-15 08:34N 38°00' W 122°25'9 9.1
2014-Nov-15 07:33N 38°04' W 122°14'16 8.0
2014-Nov-15 05:33N 38°03' W 121°54'2 0.5
2014-Nov-15 01:25N 38°04' W 121°52'15 5.2
2014-Nov-14 22:31N 38°03' W 122°11'5 5.0
2014-Nov-14 21:33N 38°03' W 122°17'5 5.1
2014-Nov-14 20:33N 38°01' W 122°23'5 5.2
2014-Nov-14 19:33N 37°56' W 122°26'3 3.3
2014-Nov-14 18:34N 37°55' W 122°22'5 5.0
2014-Nov-14 17:34N 37°59' W 122°26'0 0.4
2014-Nov-14 16:31N 37°59' W 122°26'0 0.1
2014-Nov-14 15:28N 37°59' W 122°26'2 2.5
2014-Nov-14 14:33N 38°01' W 122°25'12 5.7
2014-Nov-14 12:26N 38°02' W 122°09'13 3.2
2014-Nov-14 08:23N 38°03' W 121°53'13 4.5
2014-Nov-14 05:32N 38°02' W 122°09'5 4.8
2014-Nov-14 04:33N 38°04' W 122°15'6 5.6
2014-Nov-14 03:33N 38°02' W 122°21'5 5.5
2014-Nov-14 02:33N 37°58' W 122°26'4 4.4
2014-Nov-14 01:33N 37°55' W 122°22'3 2.8
2014-Nov-14 00:33N 37°55' W 122°25'2 1.6
2014-Nov-13 23:33N 37°57' W 122°26'4 3.9
2014-Nov-13 22:33N 37°54' W 122°22'0 0.0
2014-Nov-13 21:33N 37°54' W 122°22'0 0.0
2014-Nov-13 20:33N 37°54' W 122°22'0 0.1
2014-Nov-13 19:33N 37°54' W 122°22'6 6.2
2014-Nov-13 18:33N 38°00' W 122°24'8 8.1
2014-Nov-13 17:33N 38°04' W 122°15'16 6.6
2014-Nov-13 15:05N 38°03' W 121°54'13 2.9
2014-Nov-13 10:31N 38°03' W 122°11'6 5.9
2014-Nov-13 09:33N 38°03' W 122°18'6 5.9
2014-Nov-13 08:33N 37°60' W 122°25'4 4.1
2014-Nov-13 07:33N 37°56' W 122°26'3 3.1
2014-Nov-13 06:33N 37°54' W 122°22'7 6.7
2014-Nov-13 05:33N 38°01' W 122°23'10 9.7
2014-Nov-13 04:33N 38°03' W 122°11'  
Track history (hours):
 
Tides and Currents Weather Stations Pressure Air Temp Water Temp Dewpoint Dewpoint Depression Visibility Wind Speed Wind Dir Waves Ship Positions

Point Vicente

Owner: Foss Maritime Company, Seattle, WA. More information available from US FCC via Universal Licensing System and Coast Guard Vessel Documentation Center.

Last reported at 2014-Nov-23 01:32 UTC. Time now 2014-Nov-23 02:09 UTC.
Position N 37°54' W 122°22'.

Length 32 m; draft 4.3 m.

Type: Tug. MMSI: 366982330.

Date/timePositionNaut miles runAvg speedWind from/ knotsBaromVisibWave heightAir tempDewpointWater temp
2014-Nov-23 01:32N 37°54' W 122°22'0 0.0
2014-Nov-23 00:32N 37°54' W 122°22'0 0.0
2014-Nov-22 23:32N 37°54' W 122°22'0 0.0
2014-Nov-22 22:29N 37°54' W 122°22'0 0.0
2014-Nov-22 21:29N 37°54' W 122°22'0 0.0
2014-Nov-22 20:32N 37°54' W 122°22'0 0.0
2014-Nov-22 19:32N 37°54' W 122°22'0 0.2
2014-Nov-22 18:34N 37°54' W 122°22'6 6.2
2014-Nov-22 17:33N 38°00' W 122°24'8 7.9
2014-Nov-22 16:33N 38°04' W 122°15'1 1.0
2014-Nov-22 15:33N 38°04' W 122°14'1 0.7
2014-Nov-22 14:33N 38°03' W 122°15'0 0.0
2014-Nov-22 13:27N 38°03' W 122°15'0 0.0
2014-Nov-22 12:21N 38°03' W 122°15'0 0.0
2014-Nov-22 11:33N 38°03' W 122°15'0 0.0
2014-Nov-22 10:33N 38°03' W 122°15'0 0.0
2014-Nov-22 09:21N 38°03' W 122°15'0 0.0
2014-Nov-22 08:33N 38°03' W 122°15'1 0.8
2014-Nov-22 07:33N 38°04' W 122°16'0 0.2
2014-Nov-22 06:31N 38°03' W 122°16'5 5.1
2014-Nov-22 05:33N 38°02' W 122°22'8 7.7
2014-Nov-22 04:34N 37°55' W 122°24'2 1.5
2014-Nov-22 03:32N 37°54' W 122°22'0 0.0
2014-Nov-22 02:32N 37°54' W 122°22'0 0.0
2014-Nov-22 01:32N 37°54' W 122°22'0 0.0
2014-Nov-22 00:32N 37°54' W 122°22'0 0.0
2014-Nov-21 23:32N 37°54' W 122°22'0 0.0
2014-Nov-21 22:32N 37°54' W 122°22'0 0.0
2014-Nov-21 21:32N 37°54' W 122°22'1 0.8
2014-Nov-21 20:33N 37°55' W 122°22'0 0.1
2014-Nov-21 19:33N 37°55' W 122°22'0 0.5
2014-Nov-21 18:33N 37°55' W 122°22'1 0.6
2014-Nov-21 17:33N 37°55' W 122°22'1 0.8
2014-Nov-21 16:32N 37°54' W 122°22'0 0.0
2014-Nov-21 15:32N 37°54' W 122°22'0 0.0
2014-Nov-21 14:32N 37°54' W 122°22'0 0.0
2014-Nov-21 13:32N 37°54' W 122°22'0 0.0
2014-Nov-21 12:32N 37°54' W 122°22'0 0.0
2014-Nov-21 11:32N 37°54' W 122°22'0 0.0
2014-Nov-21 10:32N 37°54' W 122°22'0 0.0
2014-Nov-21 09:32N 37°54' W 122°22'0 0.0
2014-Nov-21 08:32N 37°54' W 122°22'0 0.0
2014-Nov-21 07:32N 37°54' W 122°22'0 0.0
2014-Nov-21 06:32N 37°54' W 122°22'0 0.0
2014-Nov-21 05:32N 37°54' W 122°22'0 0.0
2014-Nov-21 04:32N 37°54' W 122°22'0 0.0
2014-Nov-21 03:32N 37°54' W 122°22'0 0.0
2014-Nov-21 02:32N 37°54' W 122°22'0 0.0
2014-Nov-21 01:32N 37°54' W 122°22'0 0.0
2014-Nov-21 00:32N 37°54' W 122°22'0 0.0
2014-Nov-20 23:32N 37°54' W 122°22'0 0.0
2014-Nov-20 22:32N 37°54' W 122°22'0 0.0
2014-Nov-20 21:32N 37°54' W 122°22'0 0.0
2014-Nov-20 20:32N 37°54' W 122°22'0 0.0
2014-Nov-20 19:32N 37°54' W 122°22'0 0.0
2014-Nov-20 18:32N 37°54' W 122°22'0 0.0
2014-Nov-20 17:29N 37°54' W 122°22'0 0.0
2014-Nov-20 16:29N 37°54' W 122°22'0 0.0
2014-Nov-20 15:32N 37°54' W 122°22'0 0.0
2014-Nov-20 14:32N 37°54' W 122°22'0 0.0
2014-Nov-20 13:32N 37°54' W 122°22'0 0.0
2014-Nov-20 12:32N 37°54' W 122°22'2 2.1
2014-Nov-20 11:33N 37°55' W 122°25'1 0.5
2014-Nov-20 10:33N 37°54' W 122°25'7 7.3
2014-Nov-20 09:33N 37°47' W 122°22'3 2.5
2014-Nov-20 08:32N 37°45' W 122°21'0 0.2
2014-Nov-20 07:29N 37°45' W 122°21'0 0.2
2014-Nov-20 06:32N 37°45' W 122°20'0 0.0
2014-Nov-20 05:32N 37°45' W 122°20'0 0.0
2014-Nov-20 04:32N 37°45' W 122°20'0 0.0
2014-Nov-20 03:32N 37°45' W 122°20'1 1.0
2014-Nov-20 02:33N 37°46' W 122°21'7 7.0
2014-Nov-20 01:33N 37°52' W 122°24'2 2.4
2014-Nov-20 00:33N 37°54' W 122°22'0 0.1
2014-Nov-19 23:31N 37°54' W 122°22'0 0.0
2014-Nov-19 22:31N 37°54' W 122°22'0 0.0
2014-Nov-19 21:31N 37°54' W 122°22'0 0.0
2014-Nov-19 20:31N 37°54' W 122°22'0 0.0
2014-Nov-19 19:31N 37°54' W 122°22'0 0.0
2014-Nov-19 18:31N 37°54' W 122°22'0 0.0
2014-Nov-19 17:31N 37°54' W 122°22'0 0.0
2014-Nov-19 16:31N 37°54' W 122°22'0 0.0
2014-Nov-19 15:31N 37°54' W 122°22'0 0.0
2014-Nov-19 14:31N 37°54' W 122°22'0 0.0
2014-Nov-19 13:31N 37°54' W 122°22'0 0.0
2014-Nov-19 12:31N 37°54' W 122°22'0 0.0
2014-Nov-19 11:31N 37°54' W 122°22'0 0.0
2014-Nov-19 10:31N 37°54' W 122°22'2 1.8
2014-Nov-19 09:33N 37°54' W 122°25'8 7.7
2014-Nov-19 08:34N 37°47' W 122°22'4 3.8
2014-Nov-19 07:33N 37°43' W 122°21'0 0.1
2014-Nov-19 06:33N 37°43' W 122°20'0 0.0
2014-Nov-19 05:33N 37°43' W 122°20'0 0.0
2014-Nov-19 04:30N 37°43' W 122°20'0 0.0
2014-Nov-19 03:33N 37°43' W 122°20'0 0.0
2014-Nov-19 02:33N 37°43' W 122°20'0 0.0
2014-Nov-19 01:33N 37°43' W 122°20'5 4.7
2014-Nov-19 00:33N 37°48' W 122°22'7 6.7
2014-Nov-18 23:33N 37°54' W 122°23'1 0.9
2014-Nov-18 22:32N 37°54' W 122°22'0 0.0
2014-Nov-18 21:32N 37°54' W 122°22'0 0.0
2014-Nov-18 20:32N 37°54' W 122°22'0 0.0
2014-Nov-18 19:32N 37°54' W 122°22'0 0.0
2014-Nov-18 18:32N 37°54' W 122°22'1 0.6
2014-Nov-18 17:33N 37°55' W 122°22'1 0.6
2014-Nov-18 16:33N 37°54' W 122°22'0 0.0
2014-Nov-18 15:28N 37°54' W 122°22'0 0.0
2014-Nov-18 14:31N 37°54' W 122°22'0 0.0
2014-Nov-18 13:31N 37°54' W 122°22'0 0.0
2014-Nov-18 12:31N 37°54' W 122°22'0 0.0
2014-Nov-18 11:28N 37°54' W 122°22'0 0.0
2014-Nov-18 10:31N 37°54' W 122°22'0 0.0
2014-Nov-18 09:28N 37°54' W 122°22'0 0.0
2014-Nov-18 08:31N 37°54' W 122°22'0 0.0
2014-Nov-18 07:28N 37°54' W 122°22'0 0.0
2014-Nov-18 06:31N 37°54' W 122°22'0 0.0
2014-Nov-18 05:31N 37°54' W 122°22'5 4.9
2014-Nov-18 04:33N 37°58' W 122°26'7 7.3
2014-Nov-18 03:33N 38°03' W 122°19'8 8.2
2014-Nov-18 02:33N 38°02' W 122°08'11 9.3
2014-Nov-18 01:22N 38°03' W 121°54'1 0.0
2014-Nov-17 04:31N 38°03' W 121°53'14 6.4
2014-Nov-17 02:23N 38°03' W 122°11'5 5.9
2014-Nov-17 01:33N 38°03' W 122°17'6 6.1
2014-Nov-17 00:34N 38°00' W 122°24'5 5.3
2014-Nov-16 23:34N 37°55' W 122°25'2 2.0
2014-Nov-16 22:34N 37°54' W 122°23'1 1.3
2014-Nov-16 21:34N 37°55' W 122°22'1 0.7
2014-Nov-16 20:32N 37°54' W 122°22'0 0.0
2014-Nov-16 19:32N 37°54' W 122°22'0 0.1
2014-Nov-16 18:33N 37°54' W 122°22'0 0.0
2014-Nov-16 17:33N 37°54' W 122°22'1 0.6
2014-Nov-16 16:33N 37°55' W 122°22'5 5.2
2014-Nov-16 15:33N 37°59' W 122°26'1 0.7
2014-Nov-16 14:32N 37°59' W 122°26'0 0.0
2014-Nov-16 13:32N 37°59' W 122°26'0 0.0
2014-Nov-16 12:32N 37°59' W 122°26'0 0.1
2014-Nov-16 11:32N 37°59' W 122°26'0 0.0
2014-Nov-16 10:32N 37°59' W 122°26'0 0.5
2014-Nov-16 09:33N 37°59' W 122°26'1010.2
2014-Nov-16 08:33N 38°04' W 122°14'18 5.9
2014-Nov-16 05:24N 38°03' W 121°51'15 3.1
2014-Nov-16 00:33N 38°02' W 122°10'5 5.1
2014-Nov-15 23:34N 38°03' W 122°16'5 4.8
2014-Nov-15 22:34N 38°02' W 122°22'6 5.5
2014-Nov-15 21:33N 37°57' W 122°26'4 4.1
2014-Nov-15 20:34N 37°55' W 122°22'5 4.6
2014-Nov-15 19:34N 37°58' W 122°26'1 0.9
2014-Nov-15 18:31N 37°59' W 122°26'0 0.0
2014-Nov-15 17:31N 37°59' W 122°26'0 0.1
2014-Nov-15 16:31N 37°59' W 122°26'0 0.0
2014-Nov-15 15:28N 37°59' W 122°26'0 0.0
2014-Nov-15 14:31N 37°59' W 122°26'0 0.0
2014-Nov-15 13:31N 37°59' W 122°26'0 0.0
2014-Nov-15 12:31N 37°59' W 122°26'0 0.0
2014-Nov-15 11:31N 37°59' W 122°26'0 0.1
2014-Nov-15 10:28N 37°59' W 122°26'0 0.0
2014-Nov-15 09:31N 37°59' W 122°26'2 1.9
2014-Nov-15 08:34N 38°00' W 122°25'9 9.1
2014-Nov-15 07:33N 38°04' W 122°14'16 8.0
2014-Nov-15 05:33N 38°03' W 121°54'2 0.5
2014-Nov-15 01:25N 38°04' W 121°52'15 5.2
2014-Nov-14 22:31N 38°03' W 122°11'5 5.0
2014-Nov-14 21:33N 38°03' W 122°17'5 5.1
2014-Nov-14 20:33N 38°01' W 122°23'5 5.2
2014-Nov-14 19:33N 37°56' W 122°26'3 3.3
2014-Nov-14 18:34N 37°55' W 122°22'5 5.0
2014-Nov-14 17:34N 37°59' W 122°26'0 0.4
2014-Nov-14 16:31N 37°59' W 122°26'0 0.1
2014-Nov-14 15:28N 37°59' W 122°26'2 2.5
2014-Nov-14 14:33N 38°01' W 122°25'12 5.7
2014-Nov-14 12:26N 38°02' W 122°09'13 3.2
2014-Nov-14 08:23N 38°03' W 121°53'13 4.5
2014-Nov-14 05:32N 38°02' W 122°09'5 4.8
2014-Nov-14 04:33N 38°04' W 122°15'6 5.6
2014-Nov-14 03:33N 38°02' W 122°21'5 5.5
2014-Nov-14 02:33N 37°58' W 122°26'4 4.4
2014-Nov-14 01:33N 37°55' W 122°22'3 2.8
2014-Nov-14 00:33N 37°55' W 122°25'2 1.6
2014-Nov-13 23:33N 37°57' W 122°26'4 3.9
2014-Nov-13 22:33N 37°54' W 122°22'0 0.0
2014-Nov-13 21:33N 37°54' W 122°22'0 0.0
2014-Nov-13 20:33N 37°54' W 122°22'0 0.1
2014-Nov-13 19:33N 37°54' W 122°22'6 6.2
2014-Nov-13 18:33N 38°00' W 122°24'8 8.1
2014-Nov-13 17:33N 38°04' W 122°15'16 6.6
2014-Nov-13 15:05N 38°03' W 121°54'13 2.9
2014-Nov-13 10:31N 38°03' W 122°11'6 5.9
2014-Nov-13 09:33N 38°03' W 122°18'6 5.9
2014-Nov-13 08:33N 37°60' W 122°25'4 4.1
2014-Nov-13 07:33N 37°56' W 122°26'3 3.1
2014-Nov-13 06:33N 37°54' W 122°22'7 6.7
2014-Nov-13 05:33N 38°01' W 122°23'10 9.7
2014-Nov-13 04:33N 38°03' W 122°11'  

Dump ship's entire track history